sensor_id;sensor_type;location;lat;lon;timestamp;P1;durP1;ratioP1;P2;durP2;ratioP2
15110;SDS011;7656;51.954;7.998;2022-11-15T00:02:52;9.33;;;6.70;;
15110;SDS011;7656;51.954;7.998;2022-11-15T00:07:32;8.73;;;6.23;;
15110;SDS011;7656;51.954;7.998;2022-11-15T00:12:11;8.60;;;5.40;;
15110;SDS011;7656;51.954;7.998;2022-11-15T00:16:51;8.67;;;5.80;;
15110;SDS011;7656;51.954;7.998;2022-11-15T00:21:30;7.60;;;4.80;;
15110;SDS011;7656;51.954;7.998;2022-11-15T00:26:11;7.27;;;5.40;;
15110;SDS011;7656;51.954;7.998;2022-11-15T00:30:52;8.00;;;5.30;;
15110;SDS011;7656;51.954;7.998;2022-11-15T00:35:32;7.87;;;6.27;;
15110;SDS011;7656;51.954;7.998;2022-11-15T00:40:13;8.27;;;5.37;;
15110;SDS011;7656;51.954;7.998;2022-11-15T00:44:53;9.53;;;5.90;;
15110;SDS011;7656;51.954;7.998;2022-11-15T00:49:33;7.47;;;5.23;;
15110;SDS011;7656;51.954;7.998;2022-11-15T00:54:13;8.83;;;5.67;;
15110;SDS011;7656;51.954;7.998;2022-11-15T00:58:53;8.33;;;5.77;;
15110;SDS011;7656;51.954;7.998;2022-11-15T01:03:33;6.47;;;5.30;;
15110;SDS011;7656;51.954;7.998;2022-11-15T01:08:15;7.67;;;5.17;;
15110;SDS011;7656;51.954;7.998;2022-11-15T01:12:55;7.87;;;5.93;;
15110;SDS011;7656;51.954;7.998;2022-11-15T01:17:34;7.20;;;5.57;;
15110;SDS011;7656;51.954;7.998;2022-11-15T01:22:14;6.03;;;5.43;;
15110;SDS011;7656;51.954;7.998;2022-11-15T01:26:54;6.33;;;4.87;;
15110;SDS011;7656;51.954;7.998;2022-11-15T01:31:33;7.60;;;5.10;;
15110;SDS011;7656;51.954;7.998;2022-11-15T01:36:18;7.40;;;5.47;;
15110;SDS011;7656;51.954;7.998;2022-11-15T01:41:03;7.50;;;5.23;;
15110;SDS011;7656;51.954;7.998;2022-11-15T01:45:43;7.73;;;5.40;;
15110;SDS011;7656;51.954;7.998;2022-11-15T01:50:31;9.40;;;5.17;;
15110;SDS011;7656;51.954;7.998;2022-11-15T01:55:18;8.40;;;5.37;;
15110;SDS011;7656;51.954;7.998;2022-11-15T02:00:03;8.90;;;5.63;;
15110;SDS011;7656;51.954;7.998;2022-11-15T02:04:45;11.40;;;5.83;;
15110;SDS011;7656;51.954;7.998;2022-11-15T02:09:26;6.70;;;5.60;;
15110;SDS011;7656;51.954;7.998;2022-11-15T02:14:06;9.37;;;5.83;;
15110;SDS011;7656;51.954;7.998;2022-11-15T02:18:52;7.33;;;5.40;;
15110;SDS011;7656;51.954;7.998;2022-11-15T02:24:19;7.33;;;5.70;;
15110;SDS011;7656;51.954;7.998;2022-11-15T02:29:10;7.17;;;5.47;;
15110;SDS011;7656;51.954;7.998;2022-11-15T02:39:05;8.70;;;5.53;;
15110;SDS011;7656;51.954;7.998;2022-11-15T02:44:01;6.37;;;5.73;;
15110;SDS011;7656;51.954;7.998;2022-11-15T02:48:45;9.30;;;5.30;;
15110;SDS011;7656;51.954;7.998;2022-11-15T02:53:27;7.07;;;5.50;;
15110;SDS011;7656;51.954;7.998;2022-11-15T03:12:58;8.50;;;5.60;;
15110;SDS011;7656;51.954;7.998;2022-11-15T03:17:49;6.47;;;5.27;;
15110;SDS011;7656;51.954;7.998;2022-11-15T03:22:44;6.70;;;5.10;;
15110;SDS011;7656;51.954;7.998;2022-11-15T03:27:27;6.93;;;4.80;;
15110;SDS011;7656;51.954;7.998;2022-11-15T03:32:13;9.30;;;5.27;;
15110;SDS011;7656;51.954;7.998;2022-11-15T03:37:02;10.53;;;5.13;;
15110;SDS011;7656;51.954;7.998;2022-11-15T03:41:46;6.80;;;5.03;;
15110;SDS011;7656;51.954;7.998;2022-11-15T03:46:44;7.90;;;5.40;;
15110;SDS011;7656;51.954;7.998;2022-11-15T03:51:32;6.73;;;5.30;;
15110;SDS011;7656;51.954;7.998;2022-11-15T03:56:12;5.47;;;4.73;;
15110;SDS011;7656;51.954;7.998;2022-11-15T04:00:52;6.60;;;5.33;;
15110;SDS011;7656;51.954;7.998;2022-11-15T04:05:32;9.73;;;5.63;;
15110;SDS011;7656;51.954;7.998;2022-11-15T04:10:12;6.07;;;4.90;;
15110;SDS011;7656;51.954;7.998;2022-11-15T04:14:52;6.10;;;4.77;;
15110;SDS011;7656;51.954;7.998;2022-11-15T04:19:46;6.97;;;4.97;;
15110;SDS011;7656;51.954;7.998;2022-11-15T04:24:44;7.77;;;5.77;;
15110;SDS011;7656;51.954;7.998;2022-11-15T04:29:23;8.07;;;5.43;;
15110;SDS011;7656;51.954;7.998;2022-11-15T04:34:15;5.90;;;4.67;;
15110;SDS011;7656;51.954;7.998;2022-11-15T04:38:55;7.37;;;5.17;;
15110;SDS011;7656;51.954;7.998;2022-11-15T04:43:35;8.00;;;4.83;;
15110;SDS011;7656;51.954;7.998;2022-11-15T04:48:14;8.03;;;4.77;;
15110;SDS011;7656;51.954;7.998;2022-11-15T04:52:54;6.57;;;5.10;;
15110;SDS011;7656;51.954;7.998;2022-11-15T04:57:34;6.73;;;5.03;;
15110;SDS011;7656;51.954;7.998;2022-11-15T05:02:14;7.77;;;4.70;;
15110;SDS011;7656;51.954;7.998;2022-11-15T05:06:53;8.60;;;5.03;;
15110;SDS011;7656;51.954;7.998;2022-11-15T05:11:33;5.43;;;4.80;;
15110;SDS011;7656;51.954;7.998;2022-11-15T05:16:13;7.97;;;5.20;;
15110;SDS011;7656;51.954;7.998;2022-11-15T05:20:53;5.73;;;4.70;;
15110;SDS011;7656;51.954;7.998;2022-11-15T05:25:35;4.57;;;4.17;;
15110;SDS011;7656;51.954;7.998;2022-11-15T05:30:15;6.90;;;4.47;;
15110;SDS011;7656;51.954;7.998;2022-11-15T05:34:55;8.57;;;4.80;;
15110;SDS011;7656;51.954;7.998;2022-11-15T05:39:35;6.00;;;4.30;;
15110;SDS011;7656;51.954;7.998;2022-11-15T05:44:15;7.13;;;5.30;;
15110;SDS011;7656;51.954;7.998;2022-11-15T05:48:59;6.17;;;4.80;;
15110;SDS011;7656;51.954;7.998;2022-11-15T05:53:39;5.17;;;4.20;;
15110;SDS011;7656;51.954;7.998;2022-11-15T05:58:20;5.40;;;4.23;;
15110;SDS011;7656;51.954;7.998;2022-11-15T06:02:59;5.73;;;4.53;;
15110;SDS011;7656;51.954;7.998;2022-11-15T06:07:39;6.50;;;5.23;;
15110;SDS011;7656;51.954;7.998;2022-11-15T06:12:20;5.97;;;5.37;;
15110;SDS011;7656;51.954;7.998;2022-11-15T06:16:59;6.53;;;5.10;;
15110;SDS011;7656;51.954;7.998;2022-11-15T06:21:39;6.53;;;5.07;;
15110;SDS011;7656;51.954;7.998;2022-11-15T06:26:19;6.83;;;5.03;;
15110;SDS011;7656;51.954;7.998;2022-11-15T06:31:03;6.33;;;5.33;;
15110;SDS011;7656;51.954;7.998;2022-11-15T06:35:52;6.43;;;5.20;;
15110;SDS011;7656;51.954;7.998;2022-11-15T06:40:35;7.37;;;5.20;;
15110;SDS011;7656;51.954;7.998;2022-11-15T06:45:16;6.00;;;4.77;;
15110;SDS011;7656;51.954;7.998;2022-11-15T06:49:55;8.37;;;5.50;;
15110;SDS011;7656;51.954;7.998;2022-11-15T06:54:35;7.17;;;5.07;;
15110;SDS011;7656;51.954;7.998;2022-11-15T06:59:14;6.77;;;5.63;;
15110;SDS011;7656;51.954;7.998;2022-11-15T07:03:54;6.80;;;5.20;;
15110;SDS011;7656;51.954;7.998;2022-11-15T07:08:34;8.67;;;5.93;;
15110;SDS011;7656;51.954;7.998;2022-11-15T07:13:15;7.77;;;5.80;;
15110;SDS011;7656;51.954;7.998;2022-11-15T07:17:55;7.60;;;5.50;;
15110;SDS011;7656;51.954;7.998;2022-11-15T07:22:34;7.10;;;5.10;;
15110;SDS011;7656;51.954;7.998;2022-11-15T07:27:14;6.97;;;5.37;;
15110;SDS011;7656;51.954;7.998;2022-11-15T07:31:54;7.50;;;5.10;;
15110;SDS011;7656;51.954;7.998;2022-11-15T07:36:34;9.33;;;5.97;;
15110;SDS011;7656;51.954;7.998;2022-11-15T07:41:13;5.50;;;4.63;;
15110;SDS011;7656;51.954;7.998;2022-11-15T07:45:53;6.27;;;4.70;;
15110;SDS011;7656;51.954;7.998;2022-11-15T07:50:33;5.97;;;3.60;;
15110;SDS011;7656;51.954;7.998;2022-11-15T07:55:14;5.30;;;3.30;;
15110;SDS011;7656;51.954;7.998;2022-11-15T07:59:54;4.27;;;2.80;;
15110;SDS011;7656;51.954;7.998;2022-11-15T08:04:34;3.13;;;2.70;;
15110;SDS011;7656;51.954;7.998;2022-11-15T08:09:13;3.20;;;2.90;;
15110;SDS011;7656;51.954;7.998;2022-11-15T08:13:53;2.50;;;2.30;;
15110;SDS011;7656;51.954;7.998;2022-11-15T08:18:32;2.73;;;2.53;;
15110;SDS011;7656;51.954;7.998;2022-11-15T08:23:12;3.40;;;2.30;;
15110;SDS011;7656;51.954;7.998;2022-11-15T08:27:52;2.90;;;2.57;;
15110;SDS011;7656;51.954;7.998;2022-11-15T08:32:33;2.80;;;2.17;;
15110;SDS011;7656;51.954;7.998;2022-11-15T08:37:13;2.13;;;1.93;;
15110;SDS011;7656;51.954;7.998;2022-11-15T08:41:52;2.20;;;2.00;;
15110;SDS011;7656;51.954;7.998;2022-11-15T08:46:32;4.63;;;2.03;;
15110;SDS011;7656;51.954;7.998;2022-11-15T08:51:12;2.07;;;1.87;;
15110;SDS011;7656;51.954;7.998;2022-11-15T08:55:53;1.80;;;1.70;;
15110;SDS011;7656;51.954;7.998;2022-11-15T09:00:33;1.50;;;1.40;;
15110;SDS011;7656;51.954;7.998;2022-11-15T09:05:13;1.87;;;1.70;;
15110;SDS011;7656;51.954;7.998;2022-11-15T09:09:54;1.43;;;1.40;;
15110;SDS011;7656;51.954;7.998;2022-11-15T09:14:34;1.40;;;1.30;;
15110;SDS011;7656;51.954;7.998;2022-11-15T09:19:14;2.23;;;1.30;;
15110;SDS011;7656;51.954;7.998;2022-11-15T09:23:54;1.23;;;1.13;;
15110;SDS011;7656;51.954;7.998;2022-11-15T09:28:35;1.40;;;1.30;;
15110;SDS011;7656;51.954;7.998;2022-11-15T09:33:17;2.70;;;1.67;;
15110;SDS011;7656;51.954;7.998;2022-11-15T09:37:57;1.30;;;1.20;;
15110;SDS011;7656;51.954;7.998;2022-11-15T09:43:18;1.40;;;1.30;;
15110;SDS011;7656;51.954;7.998;2022-11-15T09:48:31;2.20;;;1.57;;
15110;SDS011;7656;51.954;7.998;2022-11-15T09:53:41;1.53;;;1.10;;
15110;SDS011;7656;51.954;7.998;2022-11-15T10:03:10;1.67;;;1.40;;
15110;SDS011;7656;51.954;7.998;2022-11-15T10:07:39;1.47;;;1.10;;
15110;SDS011;7656;51.954;7.998;2022-11-15T10:12:09;1.00;;;1.00;;
15110;SDS011;7656;51.954;7.998;2022-11-15T10:21:17;1.13;;;0.80;;
15110;SDS011;7656;51.954;7.998;2022-11-15T10:26:00;1.10;;;1.07;;
15110;SDS011;7656;51.954;7.998;2022-11-15T10:30:22;2.30;;;1.53;;
15110;SDS011;7656;51.954;7.998;2022-11-15T10:34:49;2.60;;;0.90;;
15110;SDS011;7656;51.954;7.998;2022-11-15T10:39:12;0.87;;;0.87;;
15110;SDS011;7656;51.954;7.998;2022-11-15T10:43:34;1.20;;;1.20;;
15110;SDS011;7656;51.954;7.998;2022-11-15T10:48:19;2.20;;;1.20;;
15110;SDS011;7656;51.954;7.998;2022-11-15T10:52:43;1.37;;;1.17;;
15110;SDS011;7656;51.954;7.998;2022-11-15T10:57:10;1.47;;;0.90;;
15110;SDS011;7656;51.954;7.998;2022-11-15T11:01:45;0.97;;;0.83;;
15110;SDS011;7656;51.954;7.998;2022-11-15T11:10:37;1.90;;;1.10;;
15110;SDS011;7656;51.954;7.998;2022-11-15T11:14:59;2.00;;;0.97;;
15110;SDS011;7656;51.954;7.998;2022-11-15T11:24:45;3.23;;;1.10;;
15110;SDS011;7656;51.954;7.998;2022-11-15T11:29:20;3.20;;;0.90;;
15110;SDS011;7656;51.954;7.998;2022-11-15T11:34:15;1.57;;;1.00;;
15110;SDS011;7656;51.954;7.998;2022-11-15T11:39:14;3.47;;;1.10;;
15110;SDS011;7656;51.954;7.998;2022-11-15T11:44:18;0.70;;;0.70;;
15110;SDS011;7656;51.954;7.998;2022-11-15T11:49:02;1.90;;;0.70;;
15110;SDS011;7656;51.954;7.998;2022-11-15T11:53:32;0.80;;;0.80;;
15110;SDS011;7656;51.954;7.998;2022-11-15T11:58:41;2.10;;;1.00;;
15110;SDS011;7656;51.954;7.998;2022-11-15T12:03:09;2.47;;;1.30;;
15110;SDS011;7656;51.954;7.998;2022-11-15T12:07:54;1.63;;;1.00;;
15110;SDS011;7656;51.954;7.998;2022-11-15T12:17:04;1.10;;;1.00;;
15110;SDS011;7656;51.954;7.998;2022-11-15T12:26:18;5.50;;;1.80;;
15110;SDS011;7656;51.954;7.998;2022-11-15T12:30:52;2.10;;;1.20;;
15110;SDS011;7656;51.954;7.998;2022-11-15T12:35:41;2.17;;;1.40;;
15110;SDS011;7656;51.954;7.998;2022-11-15T12:49:07;1.30;;;1.20;;
15110;SDS011;7656;51.954;7.998;2022-11-15T12:53:48;1.37;;;1.30;;
15110;SDS011;7656;51.954;7.998;2022-11-15T12:58:26;1.10;;;1.10;;
15110;SDS011;7656;51.954;7.998;2022-11-15T13:03:16;1.20;;;1.10;;
15110;SDS011;7656;51.954;7.998;2022-11-15T13:16:33;1.60;;;1.10;;
15110;SDS011;7656;51.954;7.998;2022-11-15T13:20:55;1.50;;;1.23;;
15110;SDS011;7656;51.954;7.998;2022-11-15T13:25:17;2.07;;;1.00;;
15110;SDS011;7656;51.954;7.998;2022-11-15T13:30:12;1.10;;;1.00;;
15110;SDS011;7656;51.954;7.998;2022-11-15T13:34:39;1.77;;;1.20;;
15110;SDS011;7656;51.954;7.998;2022-11-15T13:43:53;1.03;;;1.03;;
15110;SDS011;7656;51.954;7.998;2022-11-15T13:48:15;1.40;;;1.30;;
15110;SDS011;7656;51.954;7.998;2022-11-15T13:52:36;1.20;;;1.10;;
15110;SDS011;7656;51.954;7.998;2022-11-15T13:57:10;1.53;;;1.03;;
15110;SDS011;7656;51.954;7.998;2022-11-15T14:01:41;1.80;;;1.23;;
15110;SDS011;7656;51.954;7.998;2022-11-15T14:06:14;1.17;;;1.07;;
15110;SDS011;7656;51.954;7.998;2022-11-15T14:10:37;0.90;;;0.90;;
15110;SDS011;7656;51.954;7.998;2022-11-15T14:15:00;1.40;;;1.30;;
15110;SDS011;7656;51.954;7.998;2022-11-15T14:19:49;1.33;;;0.90;;
15110;SDS011;7656;51.954;7.998;2022-11-15T14:24:15;2.50;;;1.30;;
15110;SDS011;7656;51.954;7.998;2022-11-15T14:28:41;1.70;;;0.87;;
15110;SDS011;7656;51.954;7.998;2022-11-15T14:33:11;0.80;;;0.80;;
15110;SDS011;7656;51.954;7.998;2022-11-15T14:37:40;0.73;;;0.73;;
15110;SDS011;7656;51.954;7.998;2022-11-15T14:42:02;1.17;;;1.00;;
15110;SDS011;7656;51.954;7.998;2022-11-15T14:46:24;3.93;;;1.10;;
15110;SDS011;7656;51.954;7.998;2022-11-15T14:50:45;9.07;;;1.30;;
15110;SDS011;7656;51.954;7.998;2022-11-15T14:55:25;1.93;;;0.80;;
15110;SDS011;7656;51.954;7.998;2022-11-15T14:59:48;0.83;;;0.83;;
15110;SDS011;7656;51.954;7.998;2022-11-15T15:04:10;5.13;;;1.33;;
15110;SDS011;7656;51.954;7.998;2022-11-15T15:08:31;1.87;;;0.93;;
15110;SDS011;7656;51.954;7.998;2022-11-15T15:12:52;3.00;;;1.13;;
15110;SDS011;7656;51.954;7.998;2022-11-15T15:17:13;2.60;;;1.27;;
15110;SDS011;7656;51.954;7.998;2022-11-15T15:21:35;4.10;;;1.10;;
15110;SDS011;7656;51.954;7.998;2022-11-15T15:25:58;3.53;;;1.33;;
15110;SDS011;7656;51.954;7.998;2022-11-15T15:30:19;5.17;;;1.33;;
15110;SDS011;7656;51.954;7.998;2022-11-15T15:34:41;2.77;;;1.40;;
15110;SDS011;7656;51.954;7.998;2022-11-15T15:39:02;4.30;;;1.60;;
15110;SDS011;7656;51.954;7.998;2022-11-15T15:43:23;1.50;;;1.40;;
15110;SDS011;7656;51.954;7.998;2022-11-15T15:47:44;3.40;;;1.40;;
15110;SDS011;7656;51.954;7.998;2022-11-15T15:52:06;4.17;;;1.80;;
15110;SDS011;7656;51.954;7.998;2022-11-15T15:56:27;3.03;;;1.10;;
15110;SDS011;7656;51.954;7.998;2022-11-15T16:00:48;1.60;;;1.20;;
15110;SDS011;7656;51.954;7.998;2022-11-15T16:05:10;1.47;;;1.33;;
15110;SDS011;7656;51.954;7.998;2022-11-15T16:09:32;1.27;;;1.17;;
15110;SDS011;7656;51.954;7.998;2022-11-15T16:14:11;1.10;;;1.10;;
15110;SDS011;7656;51.954;7.998;2022-11-15T16:18:33;1.33;;;1.20;;
15110;SDS011;7656;51.954;7.998;2022-11-15T16:22:54;1.93;;;1.07;;
15110;SDS011;7656;51.954;7.998;2022-11-15T16:27:16;1.93;;;1.77;;
15110;SDS011;7656;51.954;7.998;2022-11-15T16:31:40;1.83;;;1.70;;
15110;SDS011;7656;51.954;7.998;2022-11-15T16:36:01;2.63;;;1.57;;
15110;SDS011;7656;51.954;7.998;2022-11-15T16:44:53;3.07;;;1.83;;
15110;SDS011;7656;51.954;7.998;2022-11-15T16:49:14;2.60;;;1.63;;
15110;SDS011;7656;51.954;7.998;2022-11-15T16:53:36;3.17;;;1.70;;
15110;SDS011;7656;51.954;7.998;2022-11-15T16:57:59;4.93;;;1.73;;
15110;SDS011;7656;51.954;7.998;2022-11-15T17:02:21;3.17;;;1.93;;
15110;SDS011;7656;51.954;7.998;2022-11-15T17:06:43;5.50;;;2.00;;
15110;SDS011;7656;51.954;7.998;2022-11-15T17:11:07;2.70;;;2.07;;
15110;SDS011;7656;51.954;7.998;2022-11-15T17:15:28;3.50;;;2.40;;
15110;SDS011;7656;51.954;7.998;2022-11-15T17:19:49;8.20;;;2.27;;
15110;SDS011;7656;51.954;7.998;2022-11-15T17:24:11;3.90;;;1.90;;
15110;SDS011;7656;51.954;7.998;2022-11-15T17:28:32;2.57;;;2.17;;
15110;SDS011;7656;51.954;7.998;2022-11-15T17:32:54;3.23;;;2.30;;
15110;SDS011;7656;51.954;7.998;2022-11-15T17:37:16;2.80;;;2.50;;
15110;SDS011;7656;51.954;7.998;2022-11-15T17:41:37;3.00;;;2.80;;
15110;SDS011;7656;51.954;7.998;2022-11-15T17:45:58;3.07;;;2.07;;
15110;SDS011;7656;51.954;7.998;2022-11-15T17:50:24;4.60;;;2.70;;
15110;SDS011;7656;51.954;7.998;2022-11-15T17:54:45;3.80;;;2.27;;
15110;SDS011;7656;51.954;7.998;2022-11-15T17:59:06;4.90;;;2.43;;
15110;SDS011;7656;51.954;7.998;2022-11-15T18:03:28;2.57;;;2.07;;
15110;SDS011;7656;51.954;7.998;2022-11-15T18:07:49;4.43;;;2.13;;
15110;SDS011;7656;51.954;7.998;2022-11-15T18:12:10;3.00;;;2.20;;
15110;SDS011;7656;51.954;7.998;2022-11-15T18:16:32;3.27;;;2.40;;
15110;SDS011;7656;51.954;7.998;2022-11-15T18:21:02;4.93;;;2.30;;
15110;SDS011;7656;51.954;7.998;2022-11-15T18:25:23;3.33;;;2.43;;
15110;SDS011;7656;51.954;7.998;2022-11-15T18:29:44;4.43;;;2.10;;
15110;SDS011;7656;51.954;7.998;2022-11-15T18:34:05;6.37;;;2.23;;
15110;SDS011;7656;51.954;7.998;2022-11-15T18:38:28;2.93;;;2.00;;
15110;SDS011;7656;51.954;7.998;2022-11-15T18:42:51;2.97;;;2.50;;
15110;SDS011;7656;51.954;7.998;2022-11-15T18:47:14;2.50;;;2.30;;
15110;SDS011;7656;51.954;7.998;2022-11-15T18:51:35;2.87;;;2.57;;
15110;SDS011;7656;51.954;7.998;2022-11-15T18:56:00;3.03;;;2.30;;
15110;SDS011;7656;51.954;7.998;2022-11-15T19:00:36;3.63;;;2.73;;
15110;SDS011;7656;51.954;7.998;2022-11-15T19:04:57;3.40;;;2.50;;
15110;SDS011;7656;51.954;7.998;2022-11-15T19:09:18;3.17;;;2.50;;
15110;SDS011;7656;51.954;7.998;2022-11-15T19:13:39;4.17;;;2.60;;
15110;SDS011;7656;51.954;7.998;2022-11-15T19:18:02;2.40;;;2.20;;
15110;SDS011;7656;51.954;7.998;2022-11-15T19:22:23;3.43;;;2.83;;
15110;SDS011;7656;51.954;7.998;2022-11-15T19:26:44;2.63;;;2.30;;
15110;SDS011;7656;51.954;7.998;2022-11-15T19:31:07;2.57;;;2.10;;
15110;SDS011;7656;51.954;7.998;2022-11-15T19:35:33;2.77;;;2.57;;
15110;SDS011;7656;51.954;7.998;2022-11-15T19:39:54;2.47;;;2.20;;
15110;SDS011;7656;51.954;7.998;2022-11-15T19:44:15;2.43;;;2.07;;
15110;SDS011;7656;51.954;7.998;2022-11-15T19:48:36;3.80;;;2.50;;
15110;SDS011;7656;51.954;7.998;2022-11-15T19:52:58;3.00;;;2.47;;
15110;SDS011;7656;51.954;7.998;2022-11-15T19:57:19;4.13;;;2.77;;
15110;SDS011;7656;51.954;7.998;2022-11-15T20:01:40;3.13;;;2.83;;
15110;SDS011;7656;51.954;7.998;2022-11-15T20:06:06;3.27;;;2.70;;
15110;SDS011;7656;51.954;7.998;2022-11-15T20:10:30;3.50;;;2.80;;
15110;SDS011;7656;51.954;7.998;2022-11-15T20:14:53;3.40;;;2.67;;
15110;SDS011;7656;51.954;7.998;2022-11-15T20:19:14;3.03;;;2.70;;
15110;SDS011;7656;51.954;7.998;2022-11-15T20:23:36;2.70;;;2.50;;
15110;SDS011;7656;51.954;7.998;2022-11-15T20:27:58;3.20;;;2.90;;
15110;SDS011;7656;51.954;7.998;2022-11-15T20:32:19;3.40;;;3.10;;
15110;SDS011;7656;51.954;7.998;2022-11-15T20:36:40;3.43;;;3.13;;
15110;SDS011;7656;51.954;7.998;2022-11-15T20:41:01;2.97;;;2.77;;
15110;SDS011;7656;51.954;7.998;2022-11-15T20:45:23;3.40;;;3.10;;
15110;SDS011;7656;51.954;7.998;2022-11-15T20:49:44;3.40;;;2.90;;
15110;SDS011;7656;51.954;7.998;2022-11-15T20:54:07;2.93;;;2.37;;
15110;SDS011;7656;51.954;7.998;2022-11-15T20:58:28;3.30;;;2.43;;
15110;SDS011;7656;51.954;7.998;2022-11-15T21:02:51;2.53;;;2.33;;
15110;SDS011;7656;51.954;7.998;2022-11-15T21:07:12;3.00;;;2.70;;
15110;SDS011;7656;51.954;7.998;2022-11-15T21:11:33;3.20;;;2.63;;
15110;SDS011;7656;51.954;7.998;2022-11-15T21:16:14;3.83;;;3.53;;
15110;SDS011;7656;51.954;7.998;2022-11-15T21:20:36;3.50;;;2.60;;
15110;SDS011;7656;51.954;7.998;2022-11-15T21:24:57;2.77;;;2.57;;
15110;SDS011;7656;51.954;7.998;2022-11-15T21:29:19;3.73;;;3.00;;
15110;SDS011;7656;51.954;7.998;2022-11-15T21:33:40;3.27;;;2.80;;
15110;SDS011;7656;51.954;7.998;2022-11-15T21:38:01;3.57;;;2.70;;
15110;SDS011;7656;51.954;7.998;2022-11-15T21:42:23;2.97;;;2.73;;
15110;SDS011;7656;51.954;7.998;2022-11-15T21:46:44;3.00;;;2.53;;
15110;SDS011;7656;51.954;7.998;2022-11-15T21:51:06;2.63;;;2.40;;
15110;SDS011;7656;51.954;7.998;2022-11-15T21:55:30;2.77;;;2.50;;
15110;SDS011;7656;51.954;7.998;2022-11-15T21:59:51;3.40;;;2.50;;
15110;SDS011;7656;51.954;7.998;2022-11-15T22:04:30;3.17;;;2.80;;
15110;SDS011;7656;51.954;7.998;2022-11-15T22:08:51;2.43;;;2.23;;
15110;SDS011;7656;51.954;7.998;2022-11-15T22:13:12;2.50;;;2.30;;
15110;SDS011;7656;51.954;7.998;2022-11-15T22:17:33;2.47;;;2.27;;
15110;SDS011;7656;51.954;7.998;2022-11-15T22:22:13;4.67;;;2.40;;
15110;SDS011;7656;51.954;7.998;2022-11-15T22:26:34;2.70;;;2.50;;
15110;SDS011;7656;51.954;7.998;2022-11-15T22:30:55;3.23;;;2.40;;
15110;SDS011;7656;51.954;7.998;2022-11-15T22:35:17;2.57;;;2.33;;
15110;SDS011;7656;51.954;7.998;2022-11-15T22:39:38;2.93;;;2.07;;
15110;SDS011;7656;51.954;7.998;2022-11-15T22:44:01;3.90;;;2.17;;
15110;SDS011;7656;51.954;7.998;2022-11-15T22:48:23;3.17;;;2.23;;
15110;SDS011;7656;51.954;7.998;2022-11-15T22:52:47;3.23;;;2.63;;
15110;SDS011;7656;51.954;7.998;2022-11-15T22:57:08;2.47;;;2.20;;
15110;SDS011;7656;51.954;7.998;2022-11-15T23:01:29;2.40;;;2.13;;
15110;SDS011;7656;51.954;7.998;2022-11-15T23:05:50;4.80;;;1.93;;
15110;SDS011;7656;51.954;7.998;2022-11-15T23:10:12;2.57;;;2.23;;
15110;SDS011;7656;51.954;7.998;2022-11-15T23:14:51;3.47;;;2.27;;
15110;SDS011;7656;51.954;7.998;2022-11-15T23:19:12;3.60;;;2.33;;
15110;SDS011;7656;51.954;7.998;2022-11-15T23:23:34;2.40;;;2.20;;
15110;SDS011;7656;51.954;7.998;2022-11-15T23:27:55;3.30;;;2.40;;
15110;SDS011;7656;51.954;7.998;2022-11-15T23:32:17;2.17;;;1.97;;
15110;SDS011;7656;51.954;7.998;2022-11-15T23:36:57;2.93;;;2.23;;
15110;SDS011;7656;51.954;7.998;2022-11-15T23:41:19;3.00;;;2.50;;
15110;SDS011;7656;51.954;7.998;2022-11-15T23:45:41;3.03;;;2.60;;
15110;SDS011;7656;51.954;7.998;2022-11-15T23:50:02;3.83;;;2.70;;
15110;SDS011;7656;51.954;7.998;2022-11-15T23:54:23;2.70;;;2.17;;
15110;SDS011;7656;51.954;7.998;2022-11-15T23:58:44;2.83;;;2.50;;
